Time,TemperatureF,DewpointF,PressureIn,WindDirection,WindDirectionDegrees,WindSpeedMPH,WindSpeedGustMPH,Humidity,HourlyPrecipIn,Conditions,Clouds,dailyrainin,SoftwareType,DateUTC
2013-05-11 00:04:00,64.0,57.0,29.85,West,262,0.0,5.0,78,0.00,,,0.00,weatherlink.com 1.10,2013-05-11 04:04:00,
2013-05-11 00:19:00,64.9,57.0,29.85,WSW,248,0.0,2.0,76,0.00,,,0.00,weatherlink.com 1.10,2013-05-11 04:19:00,
2013-05-11 00:34:00,65.1,57.0,29.85,WSW,248,0.0,1.0,75,0.00,,,0.00,weatherlink.com 1.10,2013-05-11 04:34:00,
2013-05-11 00:49:00,65.4,57.0,29.84,WSW,245,0.0,1.0,75,0.00,,,0.00,weatherlink.com 1.10,2013-05-11 04:49:00,
2013-05-11 01:04:00,67.1,59.0,29.84,WSW,253,3.0,8.0,75,0.00,,,0.00,weatherlink.com 1.10,2013-05-11 05:04:00,
2013-05-11 01:19:00,65.9,60.0,29.82,NW,318,1.0,7.0,82,0.05,,,0.05,weatherlink.com 1.10,2013-05-11 05:19:00,
2013-05-11 01:34:00,65.4,61.0,29.83,WSW,257,1.0,2.0,86,0.06,,,0.06,weatherlink.com 1.10,2013-05-11 05:34:00,
2013-05-11 01:49:00,65.4,61.0,29.84,SW,232,2.0,6.0,86,0.07,,,0.07,weatherlink.com 1.10,2013-05-11 05:49:00,
2013-05-11 02:04:00,64.8,62.0,29.82,WSW,250,0.0,3.0,90,0.14,,,0.14,weatherlink.com 1.10,2013-05-11 06:04:00,
2013-05-11 02:19:00,64.4,62.0,29.79,WSW,250,0.0,0.0,91,0.10,,,0.15,weatherlink.com 1.10,2013-05-11 06:19:00,
2013-05-11 02:34:00,64.4,62.0,29.83,West,260,1.0,2.0,92,0.09,,,0.15,weatherlink.com 1.10,2013-05-11 06:34:00,
2013-05-11 02:49:00,64.3,62.0,29.81,WSW,257,0.0,2.0,92,0.07,,,0.16,weatherlink.com 1.10,2013-05-11 06:49:00,
2013-05-11 03:04:00,64.1,62.0,29.81,West,267,2.0,3.0,92,0.02,,,0.16,weatherlink.com 1.10,2013-05-11 07:04:00,
2013-05-11 03:19:00,64.1,62.0,29.80,WSW,257,0.0,2.0,93,0.02,,,0.17,weatherlink.com 1.10,2013-05-11 07:19:00,
2013-05-11 03:34:00,64.0,62.0,29.80,WSW,253,0.0,1.0,93,0.02,,,0.17,weatherlink.com 1.10,2013-05-11 07:34:00,
2013-05-11 03:49:00,63.9,62.0,29.79,West,259,1.0,4.0,93,0.01,,,0.17,weatherlink.com 1.10,2013-05-11 07:49:00,
2013-05-11 04:04:00,63.8,62.0,29.79,WSW,248,0.0,3.0,94,0.01,,,0.17,weatherlink.com 1.10,2013-05-11 08:04:00,
2013-05-11 04:19:00,63.5,62.0,29.79,WNW,290,1.0,2.0,94,0.00,,,0.17,weatherlink.com 1.10,2013-05-11 08:19:00,
2013-05-11 04:34:00,63.3,61.0,29.79,West,260,1.0,5.0,93,0.00,,,0.17,weatherlink.com 1.10,2013-05-11 08:34:00,
2013-05-11 04:49:00,63.3,61.0,29.79,WSW,256,0.0,2.0,93,0.00,,,0.17,weatherlink.com 1.10,2013-05-11 08:49:00,
2013-05-11 05:04:00,63.3,61.0,29.79,West,276,0.0,2.0,93,0.00,,,0.17,weatherlink.com 1.10,2013-05-11 09:04:00,
2013-05-11 05:19:00,63.3,61.0,29.77,NW,321,2.0,3.0,93,0.01,,,0.18,weatherlink.com 1.10,2013-05-11 09:19:00,
2013-05-11 05:34:00,63.2,61.0,29.78,ENE,74,0.0,2.0,93,0.01,,,0.18,weatherlink.com 1.10,2013-05-11 09:34:00,
2013-05-11 05:49:00,63.0,61.0,29.77,East,100,0.0,2.0,93,0.01,,,0.18,weatherlink.com 1.10,2013-05-11 09:49:00,
2013-05-11 06:04:00,62.8,61.0,29.77,NNW,333,1.0,1.0,94,0.01,,,0.18,weatherlink.com 1.10,2013-05-11 10:04:00,
2013-05-11 06:19:00,62.9,61.0,29.76,West,264,0.0,2.0,94,0.00,,,0.18,weatherlink.com 1.10,2013-05-11 10:19:00,
2013-05-11 06:34:00,62.9,61.0,29.77,West,280,0.0,2.0,94,0.00,,,0.18,weatherlink.com 1.10,2013-05-11 10:34:00,
2013-05-11 06:49:00,63.0,61.0,29.77,ENE,74,0.0,2.0,93,0.00,,,0.18,weatherlink.com 1.10,2013-05-11 10:49:00,
2013-05-11 07:04:00,63.2,61.0,29.77,ENE,68,1.0,2.0,93,0.00,,,0.18,weatherlink.com 1.10,2013-05-11 11:04:00,
2013-05-11 07:19:00,63.2,61.0,29.77,West,274,1.0,2.0,93,0.00,,,0.18,weatherlink.com 1.10,2013-05-11 11:19:00,
2013-05-11 07:34:00,63.1,61.0,29.77,NW,314,1.0,3.0,93,0.00,,,0.18,weatherlink.com 1.10,2013-05-11 11:34:00,
2013-05-11 07:49:00,63.4,61.0,29.78,West,267,1.0,3.0,92,0.00,,,0.18,weatherlink.com 1.10,2013-05-11 11:49:00,
2013-05-11 08:04:00,63.4,61.0,29.79,WSW,250,2.0,5.0,92,0.00,,,0.18,weatherlink.com 1.10,2013-05-11 12:04:00,
2013-05-11 08:19:00,63.7,61.0,29.79,WNW,303,1.0,5.0,92,0.01,,,0.19,weatherlink.com 1.10,2013-05-11 12:19:00,
2013-05-11 08:34:00,63.9,61.0,29.79,WSW,243,2.0,6.0,91,0.03,,,0.21,weatherlink.com 1.10,2013-05-11 12:34:00,
2013-05-11 08:49:00,63.8,62.0,29.78,West,264,1.0,4.0,92,0.06,,,0.24,weatherlink.com 1.10,2013-05-11 12:49:00,
2013-05-11 09:04:00,64.1,62.0,29.77,West,275,0.0,3.0,93,0.06,,,0.24,weatherlink.com 1.10,2013-05-11 13:04:00,
2013-05-11 09:19:00,64.7,63.0,29.76,WNW,284,1.0,3.0,93,0.05,,,0.24,weatherlink.com 1.10,2013-05-11 13:19:00,
2013-05-11 09:34:00,65.6,63.0,29.76,West,276,1.0,3.0,91,0.03,,,0.24,weatherlink.com 1.10,2013-05-11 13:34:00,
2013-05-11 09:49:00,65.9,63.0,29.76,West,273,1.0,4.0,89,0.00,,,0.24,weatherlink.com 1.10,2013-05-11 13:49:00,
2013-05-11 10:04:00,65.5,62.0,29.77,NNE,29,1.0,6.0,89,0.00,,,0.24,weatherlink.com 1.10,2013-05-11 14:04:00,
2013-05-11 10:19:00,65.1,62.0,29.76,WSW,257,1.0,4.0,90,0.00,,,0.24,weatherlink.com 1.10,2013-05-11 14:19:00,
2013-05-11 10:35:00,65.6,62.0,29.76,NE,51,2.0,4.0,89,0.00,,,0.24,weatherlink.com 1.10,2013-05-11 14:35:00,
2013-05-11 10:50:00,65.3,62.0,29.75,NE,39,1.0,4.0,89,0.00,,,0.24,weatherlink.com 1.10,2013-05-11 14:50:00,
2013-05-11 11:05:00,64.7,62.0,29.75,WNW,295,2.0,4.0,89,0.00,,,0.24,weatherlink.com 1.10,2013-05-11 15:05:00,
2013-05-11 11:20:00,64.9,61.0,29.75,West,271,2.0,4.0,88,0.00,,,0.24,weatherlink.com 1.10,2013-05-11 15:20:00,
2013-05-11 11:35:00,65.2,61.0,29.75,WSW,250,1.0,4.0,86,0.00,,,0.24,weatherlink.com 1.10,2013-05-11 15:35:00,
2013-05-11 11:50:00,64.9,61.0,29.76,West,259,1.0,6.0,86,0.00,,,0.24,weatherlink.com 1.10,2013-05-11 15:50:00,
2013-05-11 12:05:00,65.0,61.0,29.75,West,278,1.0,4.0,87,0.00,,,0.00,weatherlink.com 1.10,2013-05-11 16:05:00,
2013-05-11 12:20:00,65.3,61.0,29.75,NNE,32,1.0,5.0,86,0.00,,,0.00,weatherlink.com 1.10,2013-05-11 16:20:00,
2013-05-11 12:35:00,65.1,61.0,29.75,WNW,301,0.0,5.0,85,0.00,,,0.00,weatherlink.com 1.10,2013-05-11 16:35:00,
2013-05-11 12:50:00,64.9,61.0,29.74,NNW,341,2.0,4.0,86,0.00,,,0.00,weatherlink.com 1.10,2013-05-11 16:50:00,
2013-05-11 13:05:00,65.6,61.0,29.73,NW,313,1.0,3.0,85,0.00,,,0.00,weatherlink.com 1.10,2013-05-11 17:05:00,
2013-05-11 13:20:00,66.6,62.0,29.72,WNW,283,2.0,4.0,84,0.00,,,0.00,weatherlink.com 1.10,2013-05-11 17:20:00,
2013-05-11 13:35:00,67.0,62.0,29.72,West,276,1.0,4.0,84,0.00,,,0.00,weatherlink.com 1.10,2013-05-11 17:35:00,
2013-05-11 13:50:00,67.9,62.0,29.70,East,79,1.0,4.0,82,0.00,,,0.00,weatherlink.com 1.10,2013-05-11 17:50:00,
2013-05-11 14:05:00,68.7,62.0,29.71,ESE,107,2.0,4.0,79,0.00,,,0.00,weatherlink.com 1.10,2013-05-11 18:05:00,
2013-05-11 14:20:00,68.9,62.0,29.70,ENE,60,2.0,4.0,79,0.00,,,0.00,weatherlink.com 1.10,2013-05-11 18:20:00,
2013-05-11 14:35:00,69.7,62.0,29.69,ENE,68,3.0,4.0,77,0.00,,,0.00,weatherlink.com 1.10,2013-05-11 18:35:00,
2013-05-11 14:50:00,69.5,62.0,29.68,North,1,1.0,3.0,78,0.00,,,0.00,weatherlink.com 1.10,2013-05-11 18:50:00,
2013-05-11 15:05:00,69.5,62.0,29.68,WNW,283,2.0,6.0,76,0.00,,,0.00,weatherlink.com 1.10,2013-05-11 19:05:00,
2013-05-11 15:20:00,67.5,61.0,29.68,ENE,65,2.0,6.0,79,0.00,,,0.00,weatherlink.com 1.10,2013-05-11 19:20:00,
2013-05-11 15:35:00,67.6,61.0,29.66,ENE,76,3.0,7.0,80,0.00,,,0.00,weatherlink.com 1.10,2013-05-11 19:35:00,
2013-05-11 15:50:00,66.0,60.0,29.66,ENE,77,3.0,9.0,81,0.00,,,0.00,weatherlink.com 1.10,2013-05-11 19:50:00,
2013-05-11 16:05:00,63.8,60.0,29.69,NE,55,4.0,10.0,87,0.08,,,0.08,weatherlink.com 1.10,2013-05-11 20:05:00,
2013-05-11 16:20:00,62.8,60.0,29.68,WSW,254,2.0,8.0,89,0.26,,,0.26,weatherlink.com 1.10,2013-05-11 20:20:00,
2013-05-11 16:35:00,62.9,61.0,29.69,West,278,1.0,3.0,92,0.28,,,0.28,weatherlink.com 1.10,2013-05-11 20:35:00,
2013-05-11 16:50:00,63.5,61.0,29.69,WSW,248,3.0,4.0,92,0.30,,,0.30,weatherlink.com 1.10,2013-05-11 20:50:00,
2013-05-11 17:05:00,63.6,61.0,29.68,West,276,0.0,1.0,92,0.21,,,0.30,weatherlink.com 1.10,2013-05-11 21:05:00,
2013-05-11 17:20:00,64.1,62.0,29.68,WNW,301,1.0,2.0,91,0.04,,,0.30,weatherlink.com 1.10,2013-05-11 21:20:00,
2013-05-11 17:35:00,64.6,62.0,29.68,ENE,76,0.0,2.0,90,0.02,,,0.30,weatherlink.com 1.10,2013-05-11 21:35:00,
2013-05-11 17:50:00,63.5,61.0,29.68,ENE,68,2.0,4.0,90,0.00,,,0.30,weatherlink.com 1.10,2013-05-11 21:50:00,
2013-05-11 18:05:00,63.1,61.0,29.69,ENE,63,2.0,3.0,92,0.00,,,0.30,weatherlink.com 1.10,2013-05-11 22:05:00,
2013-05-11 18:21:00,63.2,60.0,29.68,ENE,65,0.0,3.0,90,0.00,,,0.30,weatherlink.com 1.10,2013-05-11 22:21:00,
2013-05-11 18:36:00,63.7,61.0,29.68,ENE,68,1.0,2.0,91,0.00,,,0.30,weatherlink.com 1.10,2013-05-11 22:36:00,
2013-05-11 18:51:00,63.8,61.0,29.68,East,93,0.0,1.0,90,0.00,,,0.30,weatherlink.com 1.10,2013-05-11 22:51:00,
2013-05-11 19:06:00,64.0,61.0,29.68,NNW,336,0.0,2.0,90,0.00,,,0.30,weatherlink.com 1.10,2013-05-11 23:06:00,
2013-05-11 19:21:00,63.9,61.0,29.68,WNW,284,2.0,2.0,91,0.00,,,0.30,weatherlink.com 1.10,2013-05-11 23:21:00,
2013-05-11 19:36:00,63.8,61.0,29.67,SW,232,0.0,3.0,90,0.00,,,0.30,weatherlink.com 1.10,2013-05-11 23:36:00,
2013-05-11 19:51:00,63.5,61.0,29.67,West,262,1.0,1.0,91,0.00,,,0.30,weatherlink.com 1.10,2013-05-11 23:51:00,
2013-05-11 20:06:00,63.3,61.0,29.68,West,262,0.0,1.0,91,0.00,,,0.30,weatherlink.com 1.10,2013-05-12 00:06:00,
2013-05-11 20:21:00,63.6,61.0,29.67,WSW,251,0.0,2.0,91,0.00,,,0.30,weatherlink.com 1.10,2013-05-12 00:21:00,
2013-05-11 20:36:00,63.7,61.0,29.66,West,259,0.0,1.0,91,0.00,,,0.30,weatherlink.com 1.10,2013-05-12 00:36:00,
2013-05-11 20:51:00,63.8,61.0,29.67,WNW,290,2.0,4.0,91,0.00,,,0.30,weatherlink.com 1.10,2013-05-12 00:51:00,
2013-05-11 21:06:00,63.1,61.0,29.67,NE,44,4.0,4.0,91,0.00,,,0.30,weatherlink.com 1.10,2013-05-12 01:06:00,
2013-05-11 21:21:00,62.3,60.0,29.68,West,269,0.0,-999.0,91,-99.99,,,0.30,weatherlink.com 1.10,2013-05-12 01:21:00,
2013-05-11 21:36:00,62.1,60.0,29.68,West,267,0.0,2.0,93,0.00,,,0.30,weatherlink.com 1.10,2013-05-12 01:36:00,
2013-05-11 21:51:00,62.3,60.0,29.68,WSW,257,0.0,2.0,92,0.00,,,0.30,weatherlink.com 1.10,2013-05-12 01:51:00,
2013-05-11 22:06:00,62.3,60.0,29.67,WSW,257,1.0,1.0,92,0.00,,,0.30,weatherlink.com 1.10,2013-05-12 02:06:00,
2013-05-11 22:21:00,62.5,60.0,29.67,West,259,0.0,1.0,92,0.00,,,0.30,weatherlink.com 1.10,2013-05-12 02:21:00,
2013-05-11 22:36:00,62.6,61.0,29.67,West,259,1.0,1.0,93,0.00,,,0.30,weatherlink.com 1.10,2013-05-12 02:36:00,
2013-05-11 22:51:00,62.8,61.0,29.67,WSW,241,0.0,1.0,93,0.00,,,0.30,weatherlink.com 1.10,2013-05-12 02:51:00,
2013-05-11 23:06:00,63.0,61.0,29.66,NE,54,0.0,0.0,93,0.00,,,0.30,weatherlink.com 1.10,2013-05-12 03:06:00,
2013-05-11 23:21:00,63.3,61.0,29.67,WSW,257,1.0,1.0,93,0.00,,,0.30,weatherlink.com 1.10,2013-05-12 03:21:00,
2013-05-11 23:36:00,63.6,62.0,29.66,WSW,256,0.0,2.0,93,0.00,,,0.30,weatherlink.com 1.10,2013-05-12 03:36:00,
2013-05-11 23:51:00,63.7,62.0,29.65,West,259,1.0,3.0,93,0.00,,,0.30,weatherlink.com 1.10,2013-05-12 03:51:00,